createdAt,value
2018-06-25T09:43:05.463Z,1030.42
2018-06-25T09:44:05.473Z,1030.29
2018-06-25T09:45:05.470Z,1030.23
2018-06-25T09:46:05.473Z,1030.16
2018-06-25T09:47:05.597Z,1030.12
2018-06-25T09:48:05.480Z,1030.15
2018-06-25T09:49:05.485Z,1030.25
2018-06-25T09:50:05.489Z,1030.3
2018-06-25T09:51:05.493Z,1030.38
2018-06-25T09:52:05.497Z,1030.45
2018-06-25T09:53:05.505Z,1030.47
2018-06-25T09:54:05.507Z,1030.44
2018-06-25T09:55:05.602Z,1030.46
2018-06-25T09:56:05.514Z,1030.55
2018-06-25T09:57:05.518Z,1030.58
2018-06-25T09:58:05.526Z,1030.59
2018-06-25T09:59:05.527Z,1030.64
2018-06-25T10:00:05.551Z,1030.74
2018-06-25T10:01:05.534Z,1030.79
2018-06-25T10:02:05.543Z,1030.87
2018-06-25T10:03:05.549Z,1030.92
2018-06-25T10:04:05.547Z,1031.02
2018-06-25T10:05:05.552Z,1031.13
2018-06-25T10:06:05.558Z,1031.26
2018-06-25T10:07:05.560Z,1031.25
2018-06-25T10:08:05.565Z,1031.16
2018-06-25T10:09:05.568Z,1031.07
2018-06-25T10:10:05.575Z,1030.98
2018-06-25T10:11:05.584Z,1030.92
2018-06-25T10:12:05.577Z,1030.95
2018-06-25T10:13:05.594Z,1031.03
2018-06-25T10:14:05.585Z,1031.01
2018-06-25T10:15:05.588Z,1031.02
2018-06-25T10:16:05.596Z,1030.99
2018-06-25T10:17:05.596Z,1031.02
2018-06-25T10:18:05.600Z,1031.08
2018-06-25T10:19:05.611Z,1031.09
2018-06-25T10:20:05.626Z,1031.09
2018-06-25T10:21:05.610Z,1031.03
2018-06-25T10:22:05.614Z,1031.04
2018-06-25T10:23:05.617Z,1031.07
2018-06-25T10:24:05.620Z,1031.21
2018-06-25T10:25:05.623Z,1031.27
2018-06-25T10:26:05.629Z,1031.29
2018-06-25T10:27:05.630Z,1031.32
2018-06-25T10:28:05.647Z,1031.42
2018-06-25T10:29:05.639Z,1031.45
2018-06-25T10:30:05.639Z,1031.4
2018-06-25T10:31:05.646Z,1031.34
2018-06-25T10:32:05.647Z,1031.41
2018-06-25T10:33:05.650Z,1031.47
2018-06-25T10:34:05.652Z,1031.63
2018-06-25T10:35:05.656Z,1031.78
2018-06-25T10:36:05.658Z,1031.88
2018-06-25T10:37:05.661Z,1031.92
2018-06-25T10:38:05.665Z,1031.99
2018-06-25T10:39:05.667Z,1031.91
2018-06-25T10:40:05.674Z,1031.8
2018-06-25T10:41:05.671Z,1031.63
2018-06-25T10:42:05.706Z,1031.54
2018-06-25T10:43:05.677Z,1031.39
2018-06-25T10:44:05.681Z,1031.41
2018-06-25T10:45:05.687Z,1031.45
2018-06-25T10:46:05.687Z,1031.62
2018-06-25T10:47:05.693Z,1031.69
2018-06-25T10:48:05.691Z,1031.65
2018-06-25T10:49:05.694Z,1031.61
2018-06-25T10:50:05.699Z,1031.52
2018-06-25T10:51:05.700Z,1031.61
2018-06-25T10:52:05.703Z,1031.64
2018-06-25T10:53:05.707Z,1031.66
2018-06-25T10:54:05.707Z,1031.68
2018-06-25T10:55:05.714Z,1031.7
2018-06-25T10:56:05.712Z,1031.74
2018-06-25T10:57:05.717Z,1031.75
2018-06-25T10:58:05.720Z,1031.77
2018-06-25T10:59:05.720Z,1031.8
2018-06-25T11:00:05.908Z,1031.94
2018-06-25T11:01:05.741Z,1031.93
2018-06-25T11:02:05.730Z,1031.89
2018-06-25T11:03:05.729Z,1031.81
2018-06-25T11:04:05.732Z,1031.74
2018-06-25T11:05:05.734Z,1031.64
2018-06-25T11:06:05.738Z,1031.49
2018-06-25T11:07:05.800Z,1031.34
2018-06-25T11:08:05.741Z,1031.28
2018-06-25T11:09:05.746Z,1031.31
2018-06-25T11:10:05.757Z,1031.4
2018-06-25T11:11:05.772Z,1031.47
2018-06-25T11:12:05.763Z,1031.6
2018-06-25T11:13:05.780Z,1031.64
2018-06-25T11:14:05.763Z,1031.63
2018-06-25T11:15:05.758Z,1031.65
2018-06-25T11:16:05.762Z,1031.67
2018-06-25T11:17:05.766Z,1031.73
2018-06-25T11:18:05.766Z,1031.74
2018-06-25T11:19:05.780Z,1031.75
2018-06-25T11:20:05.781Z,1031.57
2018-06-25T11:21:05.772Z,1031.6
2018-06-25T11:22:05.775Z,1031.68
2018-06-25T11:23:05.778Z,1031.83
2018-06-25T11:24:05.785Z,1031.95
2018-06-25T11:25:05.782Z,1032.06
2018-06-25T11:26:05.785Z,1032.14
2018-06-25T11:27:06.215Z,1032.23
2018-06-25T11:28:05.787Z,1032.34
2018-06-25T11:29:05.789Z,1032.44
2018-06-25T11:30:05.792Z,1032.5
2018-06-25T11:31:05.793Z,1032.5
2018-06-25T11:32:05.795Z,1032.54
2018-06-25T11:33:05.796Z,1032.54
2018-06-25T11:34:05.797Z,1032.57
2018-06-25T11:35:05.807Z,1032.62
2018-06-25T11:36:05.800Z,1032.6
2018-06-25T11:37:05.801Z,1032.56
2018-06-25T11:38:05.806Z,1032.55
2018-06-25T11:39:05.803Z,1032.58
2018-06-25T11:40:05.818Z,1032.58
2018-06-25T11:41:05.805Z,1032.65
2018-06-25T11:42:05.820Z,1032.7
2018-06-25T11:43:05.809Z,1032.72
2018-06-25T11:44:05.808Z,1032.69
2018-06-25T11:45:05.824Z,1032.67
2018-06-25T11:46:05.811Z,1032.61
2018-06-25T11:47:05.811Z,1032.61
2018-06-25T11:48:05.812Z,1032.53
2018-06-25T11:49:05.823Z,1032.51
2018-06-25T11:50:05.816Z,1032.48
2018-06-25T11:51:05.815Z,1032.4
2018-06-25T11:52:05.816Z,1032.37
2018-06-25T11:53:05.816Z,1032.32
2018-06-25T11:54:05.816Z,1032.2
2018-06-25T11:55:05.829Z,1032.18
2018-06-25T11:56:05.825Z,1032.22
2018-06-25T11:57:05.826Z,1032.2
2018-06-25T11:58:05.819Z,1032.21
2018-06-25T11:59:05.824Z,1032.25
2018-06-25T12:00:05.845Z,1032.32
2018-06-25T12:01:05.821Z,1032.41
2018-06-25T12:02:05.883Z,1032.43
2018-06-25T12:03:06.060Z,1032.43
2018-06-25T12:04:05.826Z,1032.37
2018-06-25T12:05:05.824Z,1032.45
2018-06-25T12:06:05.825Z,1032.46
2018-06-25T12:07:05.825Z,1032.4
2018-06-25T12:08:05.831Z,1032.44
2018-06-25T12:09:05.834Z,1032.44
2018-06-25T12:10:05.827Z,1032.44
2018-06-25T12:11:05.828Z,1032.52
2018-06-25T12:12:05.897Z,1032.49
2018-06-25T12:13:05.828Z,1032.48
2018-06-25T12:14:05.869Z,1032.49
2018-06-25T12:15:05.830Z,1032.37
2018-06-25T12:16:05.841Z,1032.18
2018-06-25T12:17:05.832Z,1032.03
2018-06-25T12:18:05.838Z,1031.86
2018-06-25T12:19:05.925Z,1031.63
2018-06-25T12:20:05.915Z,1031.47
2018-06-25T12:21:05.832Z,1031.37
2018-06-25T12:22:05.833Z,1031.44
2018-06-25T12:23:05.952Z,1031.44
2018-06-25T12:24:05.834Z,1031.47
2018-06-25T12:25:05.837Z,1031.38
2018-06-25T12:26:05.837Z,1031.28
2018-06-25T12:27:05.837Z,1031.11
2018-06-25T12:28:05.838Z,1030.99
2018-06-25T12:29:05.839Z,1030.91
2018-06-25T12:30:05.844Z,1030.99
2018-06-25T12:31:05.852Z,1030.9
2018-06-25T12:32:05.870Z,1030.89
2018-06-25T12:33:05.845Z,1030.78
2018-06-25T12:34:05.865Z,1030.61
2018-06-25T12:35:05.885Z,1030.57
2018-06-25T12:36:05.851Z,1030.48
2018-06-25T12:37:05.852Z,1030.41
2018-06-25T12:38:05.855Z,1030.28
2018-06-25T12:39:05.855Z,1030.19
2018-06-25T12:40:05.859Z,1030.14
2018-06-25T12:41:05.860Z,1030.05
2018-06-25T12:42:05.871Z,1030.05
2018-06-25T12:43:05.870Z,1030.07
2018-06-25T12:44:05.867Z,1030.09
2018-06-25T12:45:05.888Z,1030.02
2018-06-25T12:46:05.872Z,1029.88
2018-06-25T12:47:05.881Z,1029.78
2018-06-25T12:48:05.881Z,1029.69
2018-06-25T12:49:05.883Z,1029.71
2018-06-25T12:50:05.889Z,1029.73
2018-06-25T12:51:05.888Z,1029.75
2018-06-25T12:52:05.916Z,1029.77
2018-06-25T12:53:05.903Z,1029.82
2018-06-25T12:54:05.919Z,1029.88
2018-06-25T12:55:05.903Z,1029.96
2018-06-25T12:56:05.905Z,1029.99
2018-06-25T12:57:05.974Z,1030.07
2018-06-25T12:58:05.921Z,1030.21
2018-06-25T12:59:05.916Z,1030.28
2018-06-25T13:00:05.919Z,1030.3
2018-06-25T13:01:05.956Z,1030.32
2018-06-25T13:02:05.928Z,1030.28
2018-06-25T13:03:05.935Z,1030.22
2018-06-25T13:04:05.955Z,1030.23
2018-06-25T13:05:05.936Z,1030.3
2018-06-25T13:06:05.965Z,1030.37
2018-06-25T13:07:05.949Z,1030.41
2018-06-25T13:08:05.968Z,1030.36
2018-06-25T13:09:06.026Z,1030.47
2018-06-25T13:10:05.959Z,1030.55
2018-06-25T13:11:05.957Z,1030.55
2018-06-25T13:12:05.995Z,1030.54
2018-06-25T13:13:05.966Z,1030.52
2018-06-25T13:14:05.965Z,1030.53
2018-06-25T13:15:05.974Z,1030.53
2018-06-25T13:16:05.972Z,1030.49
2018-06-25T13:17:05.975Z,1030.45
2018-06-25T13:18:05.987Z,1030.44
2018-06-25T13:19:05.981Z,1030.33
2018-06-25T13:20:05.994Z,1030.21
2018-06-25T13:21:05.988Z,1030.09
2018-06-25T13:22:05.991Z,1029.91
2018-06-25T13:23:05.993Z,1029.83
2018-06-25T13:24:05.997Z,1029.81
2018-06-25T13:25:06.000Z,1029.64
2018-06-25T13:26:06.005Z,1029.62
2018-06-25T13:27:06.008Z,1029.63
2018-06-25T13:28:06.045Z,1029.67
2018-06-25T13:29:06.013Z,1029.71
2018-06-25T13:30:06.017Z,1029.72
2018-06-25T13:31:06.128Z,1029.67
2018-06-25T13:32:06.057Z,1029.72
2018-06-25T13:33:06.028Z,1029.71
2018-06-25T13:34:06.045Z,1029.68
2018-06-25T13:35:06.035Z,1029.72
2018-06-25T13:36:06.038Z,1029.77
2018-06-25T13:37:06.046Z,1029.75
2018-06-25T13:38:06.129Z,1029.75
2018-06-25T13:39:06.076Z,1029.75
2018-06-25T13:40:06.067Z,1029.78
2018-06-25T13:41:06.064Z,1029.8
2018-06-25T13:42:06.087Z,1029.82
2018-06-25T13:43:06.096Z,1029.86
2018-06-25T13:44:06.076Z,1029.95
2018-06-25T13:45:06.071Z,1030.09
2018-06-25T13:46:06.081Z,1030.17
2018-06-25T13:47:06.104Z,1030.24
2018-06-25T13:48:06.094Z,1030.36
2018-06-25T13:49:06.103Z,1030.36
2018-06-25T13:50:06.112Z,1030.45
2018-06-25T13:51:06.094Z,1030.54
2018-06-25T13:52:06.102Z,1030.63
2018-06-25T13:53:06.120Z,1030.64
2018-06-25T13:54:06.112Z,1030.6
2018-06-25T13:55:06.106Z,1030.54
2018-06-25T13:56:06.109Z,1030.4
2018-06-25T13:57:06.116Z,1030.32
2018-06-25T13:58:06.116Z,1030.33
2018-06-25T13:59:06.119Z,1030.33
2018-06-25T14:00:06.131Z,1030.34
2018-06-25T14:01:06.140Z,1030.37
2018-06-25T14:02:06.137Z,1030.35
2018-06-25T14:03:06.134Z,1030.39
2018-06-25T14:04:06.156Z,1030.45
2018-06-25T14:05:06.137Z,1030.45
2018-06-25T14:06:06.140Z,1030.43
2018-06-25T14:07:06.160Z,1030.38
2018-06-25T14:08:06.163Z,1030.31
2018-06-25T14:09:06.153Z,1030.29
2018-06-25T14:10:06.173Z,1030.24
2018-06-25T14:11:06.157Z,1030.2
2018-06-25T14:12:06.158Z,1030.12
2018-06-25T14:13:06.161Z,1030
2018-06-25T14:14:06.167Z,1029.95
2018-06-25T14:15:06.169Z,1029.95
2018-06-25T14:16:06.170Z,1030
2018-06-25T14:17:06.243Z,1030.04
2018-06-25T14:18:06.178Z,1030.06
2018-06-25T14:19:06.180Z,1030.1
2018-06-25T14:20:06.182Z,1030.15
2018-06-25T14:21:06.187Z,1030.12
2018-06-25T14:22:06.189Z,1030.16
2018-06-25T14:23:06.192Z,1030.12
2018-06-25T14:24:06.199Z,1030.14
2018-06-25T14:25:06.199Z,1030.16
2018-06-25T14:26:06.202Z,1030.07
2018-06-25T14:27:06.205Z,1029.94
2018-06-25T14:28:06.226Z,1029.73
2018-06-25T14:29:06.213Z,1029.65
2018-06-25T14:30:06.217Z,1029.63
2018-06-25T14:31:06.220Z,1029.59
2018-06-25T14:32:06.242Z,1029.66
2018-06-25T14:33:06.227Z,1029.74
2018-06-25T14:34:06.232Z,1029.76
2018-06-25T14:35:06.233Z,1029.84
2018-06-25T14:36:06.237Z,1029.85
2018-06-25T14:37:06.241Z,1029.81
2018-06-25T14:38:06.244Z,1029.68
2018-06-25T14:39:06.247Z,1029.55
2018-06-25T14:40:06.319Z,1029.48
2018-06-25T14:41:06.256Z,1029.44
2018-06-25T14:42:06.260Z,1029.4
2018-06-25T14:43:06.263Z,1029.41
2018-06-25T14:44:06.267Z,1029.38
2018-06-25T14:45:06.285Z,1029.36
2018-06-25T14:46:06.274Z,1029.29
2018-06-25T14:47:06.283Z,1029.24
2018-06-25T14:48:06.326Z,1029.24
2018-06-25T14:49:06.287Z,1029.25
2018-06-25T14:50:06.291Z,1029.29
2018-06-25T14:51:06.296Z,1029.34
2018-06-25T14:52:06.302Z,1029.27
2018-06-25T14:53:06.307Z,1029.26
2018-06-25T14:54:06.308Z,1029.18
2018-06-25T14:55:06.314Z,1029.12
2018-06-25T14:56:06.320Z,1029.05
2018-06-25T14:57:06.326Z,1029.05
2018-06-25T14:58:06.326Z,1029.03
2018-06-25T14:59:06.340Z,1028.98
2018-06-25T15:00:06.345Z,1029
2018-06-25T15:01:06.340Z,1028.97
2018-06-25T15:02:06.343Z,1028.92
2018-06-25T15:03:06.353Z,1028.74
2018-06-25T15:04:06.353Z,1028.92
2018-06-25T15:05:06.371Z,1028.96
2018-06-25T15:06:06.362Z,1028.95
2018-06-25T15:07:06.367Z,1028.98
2018-06-25T15:08:06.373Z,1029.09
2018-06-25T15:09:06.377Z,1029.2
2018-06-25T15:10:06.382Z,1029.38
2018-06-25T15:11:06.386Z,1029.53
2018-06-25T15:12:06.391Z,1029.61
2018-06-25T15:13:06.409Z,1029.69
2018-06-25T15:14:06.401Z,1029.69
2018-06-25T15:15:06.404Z,1029.61
2018-06-25T15:16:06.427Z,1029.51
2018-06-25T15:17:06.413Z,1029.5
2018-06-25T15:18:06.417Z,1029.42
2018-06-25T15:19:06.422Z,1029.4
2018-06-25T15:20:06.467Z,1029.26
2018-06-25T15:21:06.431Z,1029.23
2018-06-25T15:22:06.435Z,1029.2
2018-06-25T15:23:06.439Z,1029.25
2018-06-25T15:24:06.450Z,1029.26
2018-06-25T15:25:06.449Z,1029.31
2018-06-25T15:26:06.492Z,1029.31
2018-06-25T15:27:06.456Z,1029.31
2018-06-25T15:28:06.461Z,1029.43
2018-06-25T15:29:06.465Z,1029.46
2018-06-25T15:30:06.470Z,1029.56
2018-06-25T15:31:06.473Z,1029.58
2018-06-25T15:32:06.478Z,1029.62
2018-06-25T15:33:06.481Z,1029.58
2018-06-25T15:34:06.485Z,1029.61
2018-06-25T15:35:06.490Z,1029.58
2018-06-25T15:36:06.494Z,1029.56
2018-06-25T15:37:06.497Z,1029.62
2018-06-25T15:38:06.558Z,1029.6
2018-06-25T15:39:06.506Z,1029.55
2018-06-25T15:40:06.511Z,1029.56
2018-06-25T15:41:06.513Z,1029.58
2018-06-25T15:42:06.518Z,1029.57
2018-06-25T15:43:06.521Z,1029.53
2018-06-25T15:44:06.524Z,1029.55
2018-06-25T15:45:06.529Z,1029.61
2018-06-25T15:46:06.544Z,1029.59
2018-06-25T15:47:06.536Z,1029.53
2018-06-25T15:48:06.557Z,1029.5
2018-06-25T15:49:06.542Z,1029.48
2018-06-25T15:50:06.547Z,1029.53
2018-06-25T15:51:06.550Z,1029.55
2018-06-25T15:52:06.553Z,1029.59
2018-06-25T15:53:06.564Z,1029.62
2018-06-25T15:54:06.561Z,1029.58
2018-06-25T15:55:06.564Z,1029.54
2018-06-25T15:56:06.578Z,1029.53
2018-06-25T15:57:06.577Z,1029.58
2018-06-25T15:58:06.578Z,1029.64
2018-06-25T15:59:06.578Z,1029.74
2018-06-25T16:00:06.648Z,1029.81
2018-06-25T16:01:06.584Z,1029.88
2018-06-25T16:02:06.588Z,1029.9
2018-06-25T16:03:06.595Z,1029.86
2018-06-25T16:04:06.594Z,1029.85
2018-06-25T16:05:06.598Z,1029.78
2018-06-25T16:06:06.600Z,1029.77
2018-06-25T16:07:06.603Z,1029.72
2018-06-25T16:08:06.606Z,1029.7
2018-06-25T16:09:06.610Z,1029.67
2018-06-25T16:10:06.612Z,1029.72
2018-06-25T16:11:06.615Z,1029.75
2018-06-25T16:12:06.619Z,1029.84
2018-06-25T16:13:06.622Z,1029.9
2018-06-25T16:14:06.623Z,1029.91
2018-06-25T16:15:06.626Z,1030.09
2018-06-25T16:16:06.629Z,1030.22
2018-06-25T16:17:06.632Z,1030.33
2018-06-25T16:18:06.637Z,1030.39
2018-06-25T16:19:06.639Z,1030.56
2018-06-25T16:20:06.731Z,1030.61
2018-06-25T16:21:06.642Z,1030.64
2018-06-25T16:22:06.643Z,1030.69
2018-06-25T16:23:06.646Z,1030.73
2018-06-25T16:24:06.647Z,1030.73
2018-06-25T16:25:06.653Z,1030.78
2018-06-25T16:26:06.650Z,1030.82
2018-06-25T16:27:06.662Z,1030.86
2018-06-25T16:28:06.654Z,1030.91
2018-06-25T16:29:06.655Z,1031
2018-06-25T16:30:06.658Z,1031.03
2018-06-25T16:31:06.660Z,1031.14
2018-06-25T16:32:06.659Z,1031.2
2018-06-25T16:33:06.660Z,1031.26
2018-06-25T16:34:06.672Z,1031.32
2018-06-25T16:35:06.663Z,1031.41
2018-06-25T16:36:06.665Z,1031.41
2018-06-25T16:37:06.665Z,1031.47
2018-06-25T16:38:06.665Z,1031.5
2018-06-25T16:39:06.670Z,1031.61
2018-06-25T16:40:06.669Z,1031.59
2018-06-25T16:41:06.668Z,1031.56
2018-06-25T16:42:06.669Z,1031.58
2018-06-25T16:43:06.681Z,1031.62
2018-06-25T16:44:06.670Z,1031.63
2018-06-25T16:45:06.682Z,1031.72
2018-06-25T16:46:06.670Z,1031.76
2018-06-25T16:47:06.671Z,1031.86
2018-06-25T16:48:06.671Z,1031.85
2018-06-25T16:49:06.672Z,1031.91
2018-06-25T16:50:06.678Z,1031.98
2018-06-25T16:51:06.672Z,1032.04
2018-06-25T16:52:06.679Z,1032.04
2018-06-25T16:53:06.676Z,1032.03
2018-06-25T16:54:06.670Z,1032.11
2018-06-25T16:55:06.676Z,1032.16
2018-06-25T16:56:06.671Z,1032.17
2018-06-25T16:57:06.670Z,1032.21
2018-06-25T16:58:06.671Z,1032.15
2018-06-25T16:59:06.671Z,1032.17
2018-06-25T17:00:06.670Z,1032.17
2018-06-25T17:01:06.669Z,1032.13
2018-06-25T17:02:06.671Z,1032.13
2018-06-25T17:03:06.670Z,1032.12
2018-06-25T17:04:06.669Z,1032.07
2018-06-25T17:05:06.667Z,1032.06
2018-06-25T17:06:06.674Z,1032.1
2018-06-25T17:07:06.667Z,1032.15
2018-06-25T17:08:06.666Z,1032.17
2018-06-25T17:09:06.665Z,1032.19
2018-06-25T17:10:06.672Z,1032.18
2018-06-25T17:11:06.664Z,1032.17
2018-06-25T17:12:06.664Z,1032.18
2018-06-25T17:13:06.664Z,1032.14
2018-06-25T17:14:06.666Z,1032.1
2018-06-25T17:15:06.661Z,1032.08
2018-06-25T17:16:06.659Z,1032.04
2018-06-25T17:17:06.659Z,1032.07
2018-06-25T17:18:06.659Z,1032.04
2018-06-25T17:19:06.657Z,1032.06
2018-06-25T17:20:06.657Z,1032.08
2018-06-25T17:21:06.657Z,1032.08
2018-06-25T17:22:06.771Z,1032.1
2018-06-25T17:23:06.654Z,1032.12
2018-06-25T17:24:06.654Z,1032.13
2018-06-25T17:25:06.653Z,1032.22
2018-06-25T17:26:06.653Z,1032.24
2018-06-25T17:27:06.655Z,1032.27
2018-06-25T17:28:06.649Z,1032.25
2018-06-25T17:29:06.649Z,1032.27
2018-06-25T17:30:06.648Z,1032.24
2018-06-25T17:31:06.647Z,1032.26
2018-06-25T17:32:06.646Z,1032.25
2018-06-25T17:33:06.645Z,1032.31
2018-06-25T17:34:06.644Z,1032.35
2018-06-25T17:35:06.647Z,1032.36
2018-06-25T17:36:06.660Z,1032.47
2018-06-25T17:37:06.641Z,1032.54
2018-06-25T17:38:06.640Z,1032.56
2018-06-25T17:39:06.639Z,1032.58
2018-06-25T17:40:06.638Z,1032.63
2018-06-25T17:41:06.636Z,1032.72
2018-06-25T17:42:06.636Z,1032.79
2018-06-25T17:43:06.634Z,1032.83
2018-06-25T17:44:06.632Z,1032.89
2018-06-25T17:45:06.633Z,1032.94
2018-06-25T17:46:06.628Z,1032.98
2018-06-25T17:47:06.627Z,1032.99
2018-06-25T17:48:06.627Z,1033.03
2018-06-25T17:49:06.624Z,1033.05
2018-06-25T17:50:06.623Z,1033.07
2018-06-25T17:51:06.622Z,1033.1
2018-06-25T17:52:06.619Z,1033.15
2018-06-25T17:53:06.617Z,1033.13
2018-06-25T17:54:06.619Z,1033.27
2018-06-25T17:55:06.614Z,1033.26
2018-06-25T17:56:06.611Z,1033.33
2018-06-25T17:57:06.612Z,1033.34
2018-06-25T17:58:06.609Z,1033.31
2018-06-25T17:59:06.608Z,1033.35
2018-06-25T18:00:06.607Z,1033.27
2018-06-25T18:01:06.602Z,1033.3
2018-06-25T18:02:06.600Z,1033.37
2018-06-25T18:03:06.598Z,1033.34
2018-06-25T18:04:06.596Z,1033.37
2018-06-25T18:05:06.594Z,1033.39
2018-06-25T18:06:06.591Z,1033.38
2018-06-25T18:07:06.589Z,1033.4
2018-06-25T18:08:06.587Z,1033.39
2018-06-25T18:09:06.585Z,1033.43
2018-06-25T18:10:06.582Z,1033.41
2018-06-25T18:11:06.580Z,1033.46
2018-06-25T18:12:06.577Z,1033.52
2018-06-25T18:13:06.575Z,1033.5
2018-06-25T18:14:06.572Z,1033.54
2018-06-25T18:15:06.577Z,1033.54
2018-06-25T18:16:06.573Z,1033.59
2018-06-25T18:17:06.572Z,1033.56
2018-06-25T18:18:06.565Z,1033.6
2018-06-25T18:19:06.566Z,1033.62
2018-06-25T18:20:06.558Z,1033.66
2018-06-25T18:21:06.556Z,1033.62
2018-06-25T18:22:06.553Z,1033.64
2018-06-25T18:23:06.551Z,1033.67
2018-06-25T18:24:06.548Z,1033.72
2018-06-25T18:25:06.549Z,1033.69
2018-06-25T18:26:06.546Z,1033.71
2018-06-25T18:27:06.541Z,1033.75
2018-06-25T18:28:06.538Z,1033.69
2018-06-25T18:29:06.535Z,1033.71
2018-06-25T18:30:06.532Z,1033.74
2018-06-25T18:31:06.530Z,1033.71
2018-06-25T18:32:06.526Z,1033.69
2018-06-25T18:33:06.525Z,1033.66
2018-06-25T18:34:06.521Z,1033.67
2018-06-25T18:35:06.520Z,1033.65
2018-06-25T18:36:06.516Z,1033.63
2018-06-25T18:37:06.515Z,1033.59
2018-06-25T18:38:06.514Z,1033.62
2018-06-25T18:39:06.509Z,1033.58
2018-06-25T18:40:06.505Z,1033.59
2018-06-25T18:41:06.504Z,1033.62
2018-06-25T18:42:06.504Z,1033.64
2018-06-25T18:43:06.500Z,1033.71
2018-06-25T18:44:06.494Z,1033.77
2018-06-25T18:45:06.502Z,1033.81
2018-06-25T18:46:06.504Z,1033.84
2018-06-25T18:47:06.486Z,1033.88
2018-06-25T18:48:06.487Z,1033.91
2018-06-25T18:49:06.487Z,1033.96
2018-06-25T18:50:06.479Z,1034.01
2018-06-25T18:51:06.490Z,1034.09
2018-06-25T18:52:06.476Z,1034.13
2018-06-25T18:53:06.470Z,1034.14
2018-06-25T18:54:06.468Z,1034.19
2018-06-25T18:55:06.464Z,1034.22
2018-06-25T18:56:06.464Z,1034.31
2018-06-25T18:57:06.512Z,1034.34
2018-06-25T18:58:06.454Z,1034.37
2018-06-25T18:59:06.458Z,1034.43
2018-06-25T19:00:06.449Z,1034.47
2018-06-25T19:01:06.446Z,1034.48
2018-06-25T19:02:06.442Z,1034.53
2018-06-25T19:03:06.439Z,1034.53
2018-06-25T19:04:06.441Z,1034.58
2018-06-25T19:05:06.433Z,1034.57
2018-06-25T19:06:06.448Z,1034.63
2018-06-25T19:07:06.427Z,1034.66
2018-06-25T19:08:06.424Z,1034.68
2018-06-25T19:09:06.420Z,1034.7
2018-06-25T19:10:06.420Z,1034.75
2018-06-25T19:11:06.417Z,1034.84
2018-06-25T19:12:06.438Z,1034.82
2018-06-25T19:13:06.408Z,1034.87
2018-06-25T19:14:06.406Z,1034.92
2018-06-25T19:15:06.402Z,1034.93
2018-06-25T19:16:06.409Z,1034.97
2018-06-25T19:17:06.394Z,1034.99
2018-06-25T19:18:06.405Z,1034.99
2018-06-25T19:19:06.401Z,1035
2018-06-25T19:20:06.386Z,1035.02
2018-06-25T19:21:06.382Z,1035.07
2018-06-25T19:22:06.385Z,1035.11
2018-06-25T19:23:06.373Z,1035.19
2018-06-25T19:24:06.369Z,1035.2
2018-06-25T19:25:06.366Z,1035.2
2018-06-25T19:26:06.364Z,1035.22
2018-06-25T19:27:06.358Z,1035.26
2018-06-25T19:28:06.356Z,1035.29
2018-06-25T19:29:06.353Z,1035.32
2018-06-25T19:30:06.349Z,1035.39
2018-06-25T19:31:06.351Z,1035.36
2018-06-25T19:32:06.351Z,1035.38
2018-06-25T19:33:06.337Z,1035.4
2018-06-25T19:34:06.333Z,1035.4
2018-06-25T19:35:06.345Z,1035.45
2018-06-25T19:36:06.326Z,1035.42
2018-06-25T19:37:06.324Z,1035.48
2018-06-25T19:38:06.316Z,1035.46
2018-06-25T19:39:06.318Z,1035.5
2018-06-25T19:40:06.310Z,1035.56
2018-06-25T19:41:06.305Z,1035.56
2018-06-25T19:42:06.303Z,1035.59
2018-06-25T19:43:06.297Z,1035.57
2018-06-25T19:44:06.304Z,1035.62
2018-06-25T19:45:06.290Z,1035.62
2018-06-25T19:46:06.288Z,1035.66
2018-06-25T19:47:06.285Z,1035.66
2018-06-25T19:48:06.277Z,1035.71
2018-06-25T19:49:06.273Z,1035.7
2018-06-25T19:50:06.270Z,1035.71
2018-06-25T19:51:06.269Z,1035.73
2018-06-25T19:52:06.263Z,1035.72
2018-06-25T19:53:06.262Z,1035.72
2018-06-25T19:54:06.263Z,1035.75
2018-06-25T19:55:06.247Z,1035.78
2018-06-25T19:56:06.243Z,1035.77
2018-06-25T19:57:06.239Z,1035.76
2018-06-25T19:58:06.236Z,1035.79
2018-06-25T19:59:06.245Z,1035.83
2018-06-25T20:00:06.231Z,1035.83
2018-06-25T20:01:06.220Z,1035.85
2018-06-25T20:02:06.219Z,1035.87
2018-06-25T20:03:06.213Z,1035.91
2018-06-25T20:04:06.272Z,1035.92
2018-06-25T20:05:06.203Z,1035.91
2018-06-25T20:06:06.244Z,1035.93
2018-06-25T20:07:06.194Z,1035.94
2018-06-25T20:08:06.190Z,1035.94
2018-06-25T20:09:06.185Z,1035.98
2018-06-25T20:10:06.186Z,1035.97
2018-06-25T20:11:06.190Z,1036
2018-06-25T20:12:06.172Z,1035.99
2018-06-25T20:13:06.167Z,1036.02
2018-06-25T20:14:06.166Z,1036.01
2018-06-25T20:15:06.175Z,1036.03
2018-06-25T20:16:06.155Z,1036.04
2018-06-25T20:17:06.152Z,1036.03
2018-06-25T20:18:06.145Z,1036.06
2018-06-25T20:19:06.139Z,1036.08
2018-06-25T20:20:06.146Z,1036.04
2018-06-25T20:21:06.133Z,1036.09
2018-06-25T20:22:06.193Z,1036.14
2018-06-25T20:23:06.123Z,1036.11
2018-06-25T20:24:06.117Z,1036.11
2018-06-25T20:25:06.113Z,1036.15
2018-06-25T20:26:06.115Z,1036.21
2018-06-25T20:27:06.109Z,1036.25
2018-06-25T20:28:06.117Z,1036.24
2018-06-25T20:29:06.160Z,1036.26
2018-06-25T20:30:06.089Z,1036.26
2018-06-25T20:31:06.084Z,1036.26
2018-06-25T20:32:06.080Z,1036.27
2018-06-25T20:33:06.074Z,1036.28
2018-06-25T20:34:06.102Z,1036.28
2018-06-25T20:35:06.065Z,1036.27
2018-06-25T20:36:06.129Z,1036.26
2018-06-25T20:37:06.056Z,1036.29
2018-06-25T20:38:06.052Z,1036.27
2018-06-25T20:39:06.059Z,1036.3
2018-06-25T20:40:06.040Z,1036.28
2018-06-25T20:41:06.037Z,1036.26
2018-06-25T20:42:06.031Z,1036.24
2018-06-25T20:43:06.043Z,1036.28
2018-06-25T20:44:06.022Z,1036.33
2018-06-25T20:45:06.017Z,1036.35
2018-06-25T20:46:06.011Z,1036.33
2018-06-25T20:47:06.007Z,1036.38
2018-06-25T20:48:06.004Z,1036.39
2018-06-25T20:49:05.997Z,1036.36
2018-06-25T20:50:05.993Z,1036.38
2018-06-25T20:51:05.989Z,1036.42
2018-06-25T20:52:05.981Z,1036.46
2018-06-25T20:53:05.990Z,1036.45
2018-06-25T20:54:05.980Z,1036.49
2018-06-25T20:55:05.968Z,1036.5
2018-06-25T20:56:05.971Z,1036.51
2018-06-25T20:57:05.958Z,1036.51
2018-06-25T20:58:05.951Z,1036.56
2018-06-25T20:59:05.949Z,1036.58
2018-06-25T21:00:05.946Z,1036.56
2018-06-25T21:01:05.937Z,1036.58
2018-06-25T21:02:05.933Z,1036.57
2018-06-25T21:03:05.927Z,1036.57
2018-06-25T21:04:05.930Z,1036.54
2018-06-25T21:05:05.917Z,1036.57
2018-06-25T21:06:05.917Z,1036.59
2018-06-25T21:07:05.906Z,1036.58
2018-06-25T21:08:05.902Z,1036.58
2018-06-25T21:09:05.897Z,1036.57
2018-06-25T21:10:05.902Z,1036.62
2018-06-25T21:11:05.896Z,1036.6
2018-06-25T21:12:05.880Z,1036.59
2018-06-25T21:13:05.874Z,1036.61
2018-06-25T21:14:05.873Z,1036.58
2018-06-25T21:15:05.865Z,1036.57
2018-06-25T21:16:05.860Z,1036.56
2018-06-25T21:17:05.854Z,1036.59
2018-06-25T21:18:05.849Z,1036.59
2018-06-25T21:19:05.843Z,1036.63
2018-06-25T21:20:05.837Z,1036.6
2018-06-25T21:21:05.832Z,1036.6
2018-06-25T21:22:05.827Z,1036.59
2018-06-25T21:23:05.823Z,1036.57
2018-06-25T21:24:05.817Z,1036.59
2018-06-25T21:25:05.817Z,1036.59
2018-06-25T21:26:05.807Z,1036.59
2018-06-25T21:27:05.804Z,1036.61
2018-06-25T21:28:05.795Z,1036.61
2018-06-25T21:29:05.792Z,1036.65
2018-06-25T21:30:05.801Z,1036.63
2018-06-25T21:31:05.784Z,1036.65
2018-06-25T21:32:05.776Z,1036.63
2018-06-25T21:33:05.771Z,1036.64
2018-06-25T21:34:05.764Z,1036.67
2018-06-25T21:35:05.758Z,1036.69
2018-06-25T21:36:05.825Z,1036.68
2018-06-25T21:37:05.749Z,1036.68
2018-06-25T21:38:05.742Z,1036.69
2018-06-25T21:39:05.737Z,1036.71
2018-06-25T21:40:05.738Z,1036.67
2018-06-25T21:41:05.730Z,1036.68
2018-06-25T21:42:05.720Z,1036.69
2018-06-25T21:43:05.715Z,1036.75
2018-06-25T21:44:05.716Z,1036.73
2018-06-25T21:45:05.704Z,1036.75
2018-06-25T21:46:05.730Z,1036.74
2018-06-25T21:47:05.695Z,1036.74
2018-06-25T21:48:05.688Z,1036.75
2018-06-25T21:49:05.684Z,1036.69
2018-06-25T21:50:05.677Z,1036.71
2018-06-25T21:51:05.672Z,1036.7